Time;durP1;ratioP1;P1;durP2;ratioP2;P2;SDS_P1;SDS_P2;PMS_P1;PMS_P2;Temp;Humidity;BMP_temperature;BMP_pressure;BME280_temperature;BME280_humidity;BME280_pressure;Samples;Min_cycle;Max_cycle;Signal;HPM_P1;HPM_P2
2022/01/27 00:05:23;;;;;;;45.88;17.13;;;1.90;99.90;;;;;;5047279;28;20029;-57
2022/01/27 00:13:12;;;;;;;47.05;17.85;;;1.90;99.90;;;;;;5042655;28;20540;-59
2022/01/27 00:15:39;;;;;;;39.88;16.40;;;1.90;99.90;;;;;;5034423;28;20045;-59
2022/01/27 00:18:13;;;;;;;39.72;16.25;;;1.90;99.90;;;;;;5046993;28;20571;-60
2022/01/27 00:20:39;;;;;;;42.28;16.65;;;2.00;99.90;;;;;;5041056;28;20435;-60
2022/01/27 00:23:04;;;;;;;42.67;18.58;;;2.00;99.90;;;;;;5045338;28;20029;-60
2022/01/27 00:25:30;;;;;;;41.97;15.82;;;2.00;99.90;;;;;;5045203;28;20051;-61
2022/01/27 00:27:56;;;;;;;43.92;16.20;;;2.00;99.90;;;;;;5051378;28;20067;-60
2022/01/27 00:30:21;;;;;;;35.97;16.63;;;2.00;99.90;;;;;;5053147;28;20044;-60
2022/01/27 00:32:47;;;;;;;38.83;16.88;;;2.00;99.90;;;;;;5043410;28;20028;-60
2022/01/27 00:35:13;;;;;;;45.90;15.98;;;2.00;99.90;;;;;;5041873;28;20029;-58
2022/01/27 00:37:39;;;;;;;40.15;18.50;;;2.00;99.90;;;;;;5046913;28;20036;-60
2022/01/27 00:40:07;;;;;;;39.47;15.82;;;2.00;99.90;;;;;;5046303;28;20108;-59
2022/01/27 00:42:34;;;;;;;40.33;18.08;;;2.00;99.90;;;;;;5045257;28;20029;-60
2022/01/27 00:44:59;;;;;;;48.03;18.90;;;2.00;99.90;;;;;;5046616;28;20033;-60
2022/01/27 00:47:25;;;;;;;40.58;18.80;;;2.00;99.90;;;;;;5042969;28;20021;-60
2022/01/27 00:49:51;;;;;;;41.42;19.15;;;2.00;99.90;;;;;;5042036;28;20039;-59
2022/01/27 00:52:24;;;;;;;48.00;21.20;;;2.00;99.90;;;;;;5045251;28;20059;-59
2022/01/27 00:54:52;;;;;;;53.85;24.30;;;2.00;99.90;;;;;;5045754;28;20486;-59
2022/01/27 01:00:04;;;;;;;;;;;2.00;99.90;;;;;;5045599;28;20167;-60
2022/01/27 01:07:52;;;;;;;64.97;28.05;;;2.00;99.90;;;;;;5027126;28;20454;-61
2022/01/27 01:11:20;;;;;;;64.13;26.08;;;2.00;99.90;;;;;;5013652;28;20033;-60
2022/01/27 01:15:51;;;;;;;67.05;26.83;;;2.00;99.90;;;;;;5036151;28;20517;-60
2022/01/27 01:18:40;;;;;;;61.72;25.00;;;2.00;99.90;;;;;;5036864;28;20044;-59
2022/01/27 01:29:50;;;;;;;68.07;22.40;;;1.70;99.90;;;;;;5035377;28;20032;-58
2022/01/27 01:32:25;;;;;;;67.25;24.92;;;1.60;99.90;;;;;;5032890;28;20090;-58
2022/01/27 01:34:52;;;;;;;75.35;26.42;;;1.60;99.90;;;;;;5033737;28;20709;-60
2022/01/27 01:37:19;;;;;;;63.22;25.75;;;1.60;99.90;;;;;;5039570;28;20530;-60
2022/01/27 01:39:44;;;;;;;70.30;25.85;;;1.60;99.90;;;;;;5038294;28;20028;-59
2022/01/27 01:42:11;;;;;;;61.25;22.52;;;1.60;99.90;;;;;;5043483;28;20029;-60
2022/01/27 01:44:37;;;;;;;67.15;24.85;;;1.60;99.90;;;;;;5043261;28;20041;-59
2022/01/27 01:47:04;;;;;;;66.40;24.92;;;1.60;99.90;;;;;;5049621;28;20024;-60
2022/01/27 01:49:30;;;;;;;59.33;23.90;;;1.60;99.90;;;;;;5041372;28;20026;-59
2022/01/27 01:52:03;;;;;;;67.35;23.90;;;1.60;99.90;;;;;;5031229;28;20036;-58
2022/01/27 01:54:29;;;;;;;54.38;20.08;;;1.60;99.90;;;;;;5044824;28;20052;-59
2022/01/27 01:56:55;;;;;;;68.00;25.35;;;1.60;99.90;;;;;;5048214;28;20029;-58
2022/01/27 01:59:20;;;;;;;66.43;23.15;;;1.70;99.90;;;;;;5038210;28;20029;-58
2022/01/27 02:01:46;;;;;;;64.43;23.73;;;1.60;99.90;;;;;;5037354;28;20077;-59
2022/01/27 02:04:12;;;;;;;52.72;18.00;;;1.60;99.90;;;;;;5036396;28;20497;-59
2022/01/27 02:06:51;;;;;;;54.83;21.92;;;1.60;99.90;;;;;;5040741;28;20116;-59
2022/01/27 02:09:26;;;;;;;61.08;21.52;;;1.60;99.90;;;;;;5042273;28;20040;-60
2022/01/27 02:20:06;;;;;;;;;;;1.60;99.90;;;;;;5037816;28;20110;-58
2022/01/27 02:22:31;;;;;;;60.55;20.88;;;1.60;99.90;;;;;;5035592;28;19913;-59
2022/01/27 02:24:57;;;;;;;62.17;18.48;;;1.70;99.90;;;;;;5037330;28;20035;-59
2022/01/27 02:27:23;;;;;;;59.70;20.92;;;1.60;99.90;;;;;;5034105;28;20033;-59
2022/01/27 02:29:49;;;;;;;58.72;19.95;;;1.70;99.90;;;;;;5040337;28;20446;-58
2022/01/27 02:32:16;;;;;;;63.33;20.52;;;1.60;99.90;;;;;;5035853;28;20029;-58
2022/01/27 02:34:43;;;;;;;54.70;20.05;;;1.60;99.90;;;;;;5038112;28;20504;-60
2022/01/27 02:37:09;;;;;;;58.10;21.67;;;1.60;99.90;;;;;;5037528;28;20441;-58
2022/01/27 02:39:35;;;;;;;60.15;18.63;;;1.60;99.90;;;;;;5045847;28;20024;-59
2022/01/27 02:42:19;;;;;;;58.00;19.42;;;1.70;99.90;;;;;;5029875;28;20044;-59
2022/01/27 02:44:47;;;;;;;55.55;19.60;;;1.60;99.90;;;;;;5032936;28;20033;-58
2022/01/27 02:47:14;;;;;;;61.75;21.30;;;1.60;99.90;;;;;;5037342;28;20688;-59
2022/01/27 02:49:41;;;;;;;62.53;21.48;;;1.60;99.90;;;;;;5039867;28;20029;-59
2022/01/27 02:52:07;;;;;;;60.67;21.13;;;1.70;99.90;;;;;;5044450;28;20660;-58
2022/01/27 02:54:33;;;;;;;63.38;22.70;;;1.70;99.90;;;;;;5042717;28;20033;-59
2022/01/27 02:56:58;;;;;;;61.40;20.10;;;1.60;99.90;;;;;;5033669;28;20036;-59
2022/01/27 02:59:24;;;;;;;60.20;19.83;;;1.70;99.90;;;;;;5035146;28;20022;-59
2022/01/27 03:01:51;;;;;;;57.78;19.90;;;1.70;99.90;;;;;;5034542;28;20025;-58
2022/01/27 03:04:17;;;;;;;49.67;16.17;;;1.70;99.90;;;;;;5042088;28;20521;-58
2022/01/27 03:06:44;;;;;;;59.17;21.83;;;1.70;99.90;;;;;;5034523;28;20483;-59
2022/01/27 03:09:10;;;;;;;61.58;20.88;;;1.70;99.90;;;;;;5038071;28;21232;-57
2022/01/27 03:11:50;;;;;;;55.17;19.58;;;1.70;99.90;;;;;;5034972;28;20064;-60
2022/01/27 03:14:19;;;;;;;60.63;21.40;;;1.70;99.90;;;;;;5037407;28;20050;-58
2022/01/27 03:16:46;;;;;;;50.78;19.58;;;1.70;99.90;;;;;;5033148;28;20069;-58
2022/01/27 03:19:12;;;;;;;52.00;19.08;;;1.80;99.90;;;;;;5034635;28;20045;-60
2022/01/27 03:21:38;;;;;;;48.20;18.10;;;1.80;99.90;;;;;;5034816;28;20509;-59
2022/01/27 03:24:04;;;;;;;56.88;21.02;;;1.80;99.90;;;;;;5041997;28;20100;-58
2022/01/27 03:26:30;;;;;;;52.60;18.67;;;1.80;99.90;;;;;;5036630;28;20025;-57
2022/01/27 03:28:56;;;;;;;53.88;18.70;;;1.80;99.90;;;;;;5048114;28;20094;-59
2022/01/27 03:31:21;;;;;;;50.80;17.10;;;1.80;99.90;;;;;;5043583;28;20032;-57
2022/01/27 03:33:47;;;;;;;56.90;19.70;;;1.80;99.90;;;;;;5042850;28;20052;-59
2022/01/27 03:36:14;;;;;;;53.50;18.33;;;1.80;99.90;;;;;;5026003;28;20119;-58
2022/01/27 03:38:40;;;;;;;51.75;17.60;;;1.80;99.90;;;;;;5038435;28;20025;-58
2022/01/27 03:41:07;;;;;;;46.22;17.40;;;1.70;99.90;;;;;;5041178;28;20058;-59
2022/01/27 03:43:36;;;;;;;50.97;18.90;;;1.70;99.90;;;;;;5037365;28;20021;-59
2022/01/27 03:46:02;;;;;;;49.25;16.92;;;1.70;99.90;;;;;;5033898;28;20512;-59
2022/01/27 03:48:28;;;;;;;47.92;17.10;;;1.70;99.90;;;;;;5033316;28;20022;-54
2022/01/27 03:50:53;;;;;;;48.20;18.40;;;1.70;99.90;;;;;;5037164;28;20040;-58
2022/01/27 03:53:19;;;;;;;55.38;17.40;;;1.70;99.90;;;;;;5028745;28;20022;-59
2022/01/27 03:55:45;;;;;;;42.53;15.70;;;1.70;99.90;;;;;;5033317;28;20032;-59
2022/01/27 03:58:10;;;;;;;46.67;17.50;;;1.70;99.90;;;;;;5035610;28;20110;-58
2022/01/27 04:00:36;;;;;;;45.50;16.25;;;1.70;99.90;;;;;;5046074;28;20036;-57
2022/01/27 04:03:06;;;;;;;50.55;15.75;;;1.70;99.90;;;;;;5044120;28;20037;-58
2022/01/27 04:05:38;;;;;;;43.35;15.35;;;1.70;99.90;;;;;;5036125;28;20032;-60
2022/01/27 04:08:06;;;;;;;48.72;18.42;;;1.70;99.90;;;;;;5038219;28;20180;-60
2022/01/27 04:10:32;;;;;;;47.53;18.10;;;1.80;99.90;;;;;;5037491;28;20041;-58
2022/01/27 04:12:58;;;;;;;51.50;17.40;;;1.70;99.90;;;;;;5034926;28;20029;-58
2022/01/27 04:15:24;;;;;;;45.05;17.40;;;1.70;99.90;;;;;;5051434;28;20593;-60
2022/01/27 04:17:50;;;;;;;42.65;14.20;;;1.70;99.90;;;;;;5037278;28;20509;-59
2022/01/27 04:20:16;;;;;;;39.90;15.32;;;1.70;99.90;;;;;;5035648;28;20025;-58
2022/01/27 04:22:41;;;;;;;36.20;14.38;;;1.70;99.90;;;;;;5033116;28;20204;-60
2022/01/27 04:25:08;;;;;;;39.53;14.38;;;1.70;99.90;;;;;;5044955;28;20029;-59
2022/01/27 04:27:37;;;;;;;36.42;14.73;;;1.70;99.90;;;;;;5041181;28;20032;-60
2022/01/27 04:30:05;;;;;;;37.08;14.15;;;1.70;99.90;;;;;;5050810;28;20033;-60
2022/01/27 04:32:38;;;;;;;41.83;16.15;;;1.80;99.90;;;;;;5032644;28;20025;-59
2022/01/27 04:35:06;;;;;;;42.25;14.82;;;1.80;99.90;;;;;;5041435;28;20502;-60
2022/01/27 04:37:38;;;;;;;36.33;14.43;;;1.80;99.90;;;;;;5042996;28;20048;-60
2022/01/27 04:40:10;;;;;;;39.88;15.38;;;1.80;99.90;;;;;;5048745;28;20048;-59
2022/01/27 04:42:56;;;;;;;35.75;13.95;;;1.80;99.90;;;;;;5047186;28;20410;-59
2022/01/27 04:45:26;;;;;;;33.35;13.00;;;1.80;99.90;;;;;;5037800;28;20471;-58
2022/01/27 04:47:59;;;;;;;41.35;14.52;;;1.80;99.90;;;;;;5039693;28;20045;-58
2022/01/27 04:50:26;;;;;;;37.58;14.82;;;1.80;99.90;;;;;;5037064;28;20037;-60
2022/01/27 04:52:54;;;;;;;40.83;13.57;;;1.80;99.90;;;;;;5038497;28;20120;-59
2022/01/27 04:55:22;;;;;;;38.72;15.68;;;1.80;99.90;;;;;;5040439;28;20457;-60
2022/01/27 04:57:54;;;;;;;38.67;14.23;;;1.80;99.90;;;;;;5037586;28;20033;-59
2022/01/27 05:00:20;;;;;;;38.88;14.07;;;1.80;99.90;;;;;;5035339;28;20029;-60
2022/01/27 05:02:54;;;;;;;34.95;13.07;;;1.80;99.90;;;;;;5042951;28;20035;-60
2022/01/27 05:05:21;;;;;;;37.22;13.95;;;1.80;99.90;;;;;;5041622;28;20040;-59
2022/01/27 05:07:54;;;;;;;35.05;13.25;;;1.90;99.90;;;;;;5033593;28;20112;-60
2022/01/27 05:10:23;;;;;;;39.22;13.43;;;1.90;99.90;;;;;;5036498;28;20033;-59
2022/01/27 05:12:52;;;;;;;38.80;14.25;;;1.90;99.90;;;;;;5039046;28;20491;-60
2022/01/27 05:15:18;;;;;;;43.08;14.23;;;1.90;99.90;;;;;;5050895;28;20533;-60
2022/01/27 05:17:44;;;;;;;40.95;16.17;;;1.90;99.90;;;;;;5037044;28;20036;-59
2022/01/27 05:20:10;;;;;;;39.05;14.27;;;1.90;99.90;;;;;;5037325;28;20037;-60
2022/01/27 05:22:36;;;;;;;37.42;14.27;;;1.90;99.90;;;;;;5043888;28;20021;-60
2022/01/27 05:25:02;;;;;;;37.55;14.10;;;1.90;99.90;;;;;;5041660;28;20110;-60
2022/01/27 05:27:27;;;;;;;33.42;13.60;;;1.90;99.90;;;;;;5040119;28;20108;-59
2022/01/27 05:29:53;;;;;;;36.63;12.98;;;2.00;99.90;;;;;;5035603;28;20527;-59
2022/01/27 05:32:19;;;;;;;36.40;12.68;;;1.90;99.90;;;;;;5031467;28;20563;-59
2022/01/27 05:34:45;;;;;;;36.28;13.30;;;2.00;99.90;;;;;;5043251;28;20025;-61
2022/01/27 05:37:11;;;;;;;36.05;13.90;;;2.00;99.90;;;;;;5036808;28;20123;-60
2022/01/27 05:39:36;;;;;;;42.75;16.70;;;1.90;99.90;;;;;;5043087;28;20069;-60
2022/01/27 05:42:02;;;;;;;37.90;13.45;;;2.00;99.90;;;;;;5040125;28;20040;-57
2022/01/27 05:44:30;;;;;;;39.20;14.35;;;1.90;99.90;;;;;;5039017;28;20025;-60
2022/01/27 05:46:56;;;;;;;35.58;14.57;;;2.00;99.90;;;;;;5040526;28;20030;-59
2022/01/27 05:49:22;;;;;;;28.77;12.00;;;2.00;99.90;;;;;;5047659;28;20045;-60
2022/01/27 05:51:47;;;;;;;32.40;13.75;;;2.00;99.90;;;;;;5039907;28;20475;-60
2022/01/27 05:54:13;;;;;;;35.65;13.95;;;2.10;99.90;;;;;;5035820;28;20029;-59
2022/01/27 05:56:38;;;;;;;37.35;13.95;;;2.10;99.90;;;;;;5037316;28;20081;-60
2022/01/27 05:59:04;;;;;;;38.33;14.77;;;2.10;99.90;;;;;;5035959;28;20109;-59
2022/01/27 06:01:30;;;;;;;33.38;13.80;;;2.10;99.90;;;;;;5039710;28;20071;-61
2022/01/27 06:03:55;;;;;;;33.67;13.57;;;2.10;99.90;;;;;;5043419;28;20100;-60
2022/01/27 06:06:21;;;;;;;39.35;15.68;;;2.10;99.90;;;;;;5040625;28;20030;-60
2022/01/27 06:08:46;;;;;;;35.88;15.20;;;2.10;99.90;;;;;;5045043;28;20032;-60
2022/01/27 06:11:12;;;;;;;143.85;44.00;;;2.10;99.90;;;;;;5039636;28;20125;-60
2022/01/27 06:13:38;;;;;;;43.25;16.65;;;2.10;99.90;;;;;;5039603;28;20025;-58
2022/01/27 06:16:09;;;;;;;63.67;32.67;;;2.10;99.90;;;;;;5046051;28;20030;-60
2022/01/27 06:18:36;;;;;;;74.28;31.60;;;2.20;99.90;;;;;;5046157;28;20525;-60
2022/01/27 06:21:04;;;;;;;55.00;20.80;;;2.20;99.90;;;;;;5035476;28;20645;-57
2022/01/27 06:23:31;;;;;;;30.48;13.75;;;2.20;99.90;;;;;;5042009;28;20029;-59
2022/01/27 06:26:01;;;;;;;33.17;13.32;;;2.20;99.90;;;;;;5039178;28;20022;-60
2022/01/27 06:28:26;;;;;;;39.72;15.25;;;2.20;99.90;;;;;;5036968;28;20055;-60
2022/01/27 06:30:52;;;;;;;43.78;16.10;;;2.30;99.90;;;;;;5031821;28;20036;-60
2022/01/27 06:33:17;;;;;;;38.65;18.45;;;2.30;99.90;;;;;;5037363;28;20029;-60
2022/01/27 06:35:43;;;;;;;31.90;15.25;;;2.30;99.90;;;;;;5032703;28;20086;-60
2022/01/27 06:38:09;;;;;;;35.97;13.35;;;2.30;99.90;;;;;;5040531;28;20037;-61
2022/01/27 06:40:35;;;;;;;35.53;13.93;;;2.30;99.90;;;;;;5042477;28;20060;-61
2022/01/27 06:43:01;;;;;;;29.15;14.25;;;2.40;99.90;;;;;;5033150;28;20021;-61
2022/01/27 06:45:27;;;;;;;33.08;13.60;;;2.40;99.90;;;;;;5026981;28;20398;-60
2022/01/27 06:47:53;;;;;;;35.45;14.57;;;2.40;99.90;;;;;;5038386;28;20112;-61
2022/01/27 06:50:19;;;;;;;34.25;13.93;;;2.40;99.90;;;;;;5036189;28;20104;-60
2022/01/27 06:52:45;;;;;;;40.03;14.82;;;2.40;99.90;;;;;;5029970;28;20075;-58
2022/01/27 06:55:13;;;;;;;35.20;14.50;;;2.40;99.90;;;;;;5041713;28;20033;-61
2022/01/27 06:57:39;;;;;;;31.08;13.65;;;2.50;99.90;;;;;;5038002;28;20025;-60
2022/01/27 07:00:09;;;;;;;38.47;14.77;;;2.50;99.90;;;;;;5036825;28;20159;-60
2022/01/27 07:02:34;;;;;;;37.25;14.70;;;2.50;99.90;;;;;;5042630;28;20063;-60
2022/01/27 07:05:00;;;;;;;37.58;14.15;;;2.50;99.90;;;;;;5037263;28;20057;-60
2022/01/27 07:07:26;;;;;;;35.97;14.38;;;2.50;99.90;;;;;;5035429;28;20032;-60
2022/01/27 07:09:52;;;;;;;31.70;13.20;;;2.60;99.90;;;;;;5029705;28;20040;-61
2022/01/27 07:12:17;;;;;;;29.08;13.45;;;2.60;99.90;;;;;;5036220;28;20029;-60
2022/01/27 07:14:43;;;;;;;36.10;16.60;;;2.70;99.90;;;;;;5034337;28;20625;-61
2022/01/27 07:17:08;;;;;;;31.92;14.30;;;2.70;99.90;;;;;;5033396;28;20483;-61
2022/01/27 07:19:34;;;;;;;38.13;15.63;;;2.70;99.90;;;;;;5042940;28;20028;-60
2022/01/27 07:21:59;;;;;;;34.38;14.73;;;2.70;99.90;;;;;;5040275;28;20036;-61
2022/01/27 07:24:25;;;;;;;37.97;17.92;;;2.70;99.90;;;;;;5034941;28;20026;-61
2022/01/27 07:26:51;;;;;;;33.88;14.68;;;2.80;99.90;;;;;;5003221;28;20025;-61
2022/01/27 07:29:17;;;;;;;37.28;17.77;;;2.80;99.90;;;;;;5054021;28;20028;-60
2022/01/27 07:31:43;;;;;;;38.40;16.60;;;2.80;99.90;;;;;;5036466;28;20064;-61
2022/01/27 07:34:08;;;;;;;38.30;15.77;;;2.80;99.90;;;;;;5039246;28;20052;-60
2022/01/27 07:36:34;;;;;;;33.67;14.25;;;2.90;99.90;;;;;;5041211;28;20040;-61
2022/01/27 07:39:01;;;;;;;36.65;15.45;;;2.90;99.90;;;;;;5045996;28;20032;-61
2022/01/27 07:41:26;;;;;;;36.58;15.20;;;2.90;99.90;;;;;;5047212;28;20036;-59
2022/01/27 07:43:52;;;;;;;29.10;14.50;;;3.00;99.90;;;;;;5039408;28;20787;-61
2022/01/27 07:46:17;;;;;;;31.58;13.93;;;3.00;99.90;;;;;;5040289;28;20029;-60
2022/01/27 07:48:43;;;;;;;30.60;14.60;;;3.00;99.90;;;;;;5047799;28;20029;-61
2022/01/27 07:51:10;;;;;;;32.13;16.08;;;3.00;99.90;;;;;;5039733;28;20036;-61
2022/01/27 07:53:36;;;;;;;32.10;13.88;;;3.10;99.90;;;;;;5041133;28;20103;-61
2022/01/27 07:56:04;;;;;;;36.42;16.95;;;3.10;99.90;;;;;;5047521;28;20107;-60
2022/01/27 07:58:30;;;;;;;32.28;13.48;;;3.10;99.90;;;;;;5045799;28;20040;-61
2022/01/27 08:00:56;;;;;;;33.97;13.40;;;3.20;99.90;;;;;;5045200;28;20028;-61
2022/01/27 08:03:21;;;;;;;45.47;23.15;;;3.20;99.90;;;;;;5048925;28;20435;-61
2022/01/27 08:05:47;;;;;;;35.50;16.58;;;3.20;99.90;;;;;;5045871;28;20033;-59
2022/01/27 08:08:13;;;;;;;35.17;15.32;;;3.30;99.90;;;;;;5032338;28;20037;-60
2022/01/27 08:10:38;;;;;;;33.00;14.25;;;3.30;99.90;;;;;;5035917;28;20029;-60
2022/01/27 08:13:09;;;;;;;42.05;18.45;;;3.30;99.90;;;;;;5040871;28;20029;-61
2022/01/27 08:15:35;;;;;;;40.08;18.08;;;3.30;99.90;;;;;;5039933;28;20032;-60
2022/01/27 08:18:02;;;;;;;44.13;19.25;;;3.40;99.90;;;;;;5036642;28;20057;-61
2022/01/27 08:20:27;;;;;;;95.20;36.03;;;3.30;99.90;;;;;;5041779;28;20114;-61
2022/01/27 08:22:54;;;;;;;78.97;28.80;;;3.30;99.90;;;;;;5038676;28;20128;-61
2022/01/27 08:25:24;;;;;;;92.40;36.95;;;3.40;99.90;;;;;;5044727;28;20382;-61
2022/01/27 08:27:53;;;;;;;49.17;21.17;;;3.40;99.90;;;;;;5046666;28;20105;-60
2022/01/27 08:30:21;;;;;;;33.25;15.02;;;3.50;99.90;;;;;;5031972;28;20378;-61
2022/01/27 08:32:58;;;;;;;33.40;15.00;;;3.50;99.90;;;;;;5041074;28;20493;-61
2022/01/27 08:35:25;;;;;;;36.45;14.68;;;3.50;99.90;;;;;;5043608;28;20053;-61
2022/01/27 08:37:52;;;;;;;46.33;19.05;;;3.50;99.90;;;;;;5039874;28;20078;-61
2022/01/27 08:40:19;;;;;;;99.20;35.30;;;3.50;99.90;;;;;;5018862;28;20080;-59
2022/01/27 08:42:45;;;;;;;106.00;39.53;;;3.60;99.90;;;;;;5029414;28;20025;-61
2022/01/27 08:45:13;;;;;;;112.88;43.70;;;3.60;99.90;;;;;;5034861;28;20056;-60
2022/01/27 08:47:40;;;;;;;86.85;34.72;;;3.60;99.90;;;;;;5042270;28;20100;-61
2022/01/27 08:50:08;;;;;;;158.43;57.03;;;3.60;99.90;;;;;;5037535;28;20027;-61
2022/01/27 08:52:34;;;;;;;69.32;28.10;;;3.60;99.90;;;;;;5035731;28;20406;-60
2022/01/27 08:54:59;;;;;;;90.97;36.10;;;3.70;99.90;;;;;;5039191;28;20025;-60
2022/01/27 08:57:25;;;;;;;62.35;25.50;;;3.70;99.90;;;;;;5043718;28;20549;-61
2022/01/27 08:59:52;;;;;;;59.00;23.77;;;3.70;99.90;;;;;;5033067;28;20094;-61
2022/01/27 09:02:18;;;;;;;51.40;24.42;;;3.70;99.90;;;;;;5037034;28;20033;-61
2022/01/27 09:04:44;;;;;;;49.75;23.80;;;3.80;99.90;;;;;;5040691;28;20143;-60
2022/01/27 09:07:10;;;;;;;48.45;22.23;;;3.80;99.90;;;;;;5041395;28;20017;-60
2022/01/27 09:09:36;;;;;;;49.85;23.48;;;3.80;99.90;;;;;;5050332;28;20048;-60
2022/01/27 09:12:01;;;;;;;36.53;17.38;;;3.80;99.90;;;;;;5037977;28;20032;-61
2022/01/27 09:14:29;;;;;;;42.45;20.60;;;3.90;99.90;;;;;;5048785;28;20427;-61
2022/01/27 09:16:56;;;;;;;43.15;19.70;;;3.90;99.90;;;;;;5043597;28;20933;-61
2022/01/27 09:19:22;;;;;;;41.38;18.45;;;4.00;99.90;;;;;;5044473;28;20028;-61
2022/01/27 09:21:48;;;;;;;43.90;19.55;;;4.00;99.90;;;;;;5046052;28;20031;-60
2022/01/27 09:24:17;;;;;;;47.80;21.02;;;4.10;99.90;;;;;;5041897;28;20029;-61
2022/01/27 09:26:52;;;;;;;43.90;17.63;;;4.10;99.90;;;;;;5038071;28;20098;-61
2022/01/27 09:29:20;;;;;;;33.70;15.82;;;4.10;99.90;;;;;;5035663;28;20029;-61
2022/01/27 09:31:47;;;;;;;37.00;18.90;;;4.00;99.90;;;;;;5037119;28;20036;-61
2022/01/27 09:34:15;;;;;;;40.15;17.83;;;4.00;99.90;;;;;;5040239;28;20458;-61
2022/01/27 09:36:40;;;;;;;36.92;16.30;;;4.00;99.90;;;;;;5046385;28;20025;-61
2022/01/27 09:39:06;;;;;;;36.28;16.73;;;4.00;99.90;;;;;;5032822;28;20052;-55
2022/01/27 09:41:37;;;;;;;49.35;22.33;;;4.00;99.90;;;;;;5032111;28;20026;-61
2022/01/27 09:44:04;;;;;;;42.03;18.55;;;4.10;99.90;;;;;;5047752;28;20111;-61
2022/01/27 09:46:31;;;;;;;40.28;18.05;;;4.10;99.90;;;;;;5046580;28;20033;-60
2022/01/27 09:48:58;;;;;;;49.13;21.08;;;4.10;99.90;;;;;;5043609;28;20588;-60
2022/01/27 09:51:38;;;;;;;56.90;20.90;;;4.20;99.90;;;;;;5044941;28;20056;-61
2022/01/27 09:54:04;;;;;;;48.25;20.33;;;4.30;99.90;;;;;;5046990;28;20090;-60
2022/01/27 09:56:29;;;;;;;57.72;21.90;;;4.40;99.90;;;;;;5043901;28;20044;-61
2022/01/27 09:58:55;;;;;;;62.33;23.60;;;4.50;99.90;;;;;;5044935;28;20036;-61
2022/01/27 10:01:21;;;;;;;60.22;24.75;;;4.50;99.90;;;;;;5061204;28;20029;-60
2022/01/27 10:03:54;;;;;;;63.28;23.65;;;4.60;99.90;;;;;;5057169;28;20555;-59
2022/01/27 10:06:21;;;;;;;65.45;27.30;;;4.60;99.90;;;;;;5057825;28;20509;-60
2022/01/27 10:09:13;;;;;;;66.00;28.58;;;4.60;99.90;;;;;;5058016;28;20048;-61
2022/01/27 10:11:39;;;;;;;72.60;29.85;;;4.70;99.90;;;;;;5061879;28;20017;-59
2022/01/27 10:14:22;;;;;;;70.00;28.02;;;4.70;99.90;;;;;;5051695;28;20068;-61
2022/01/27 10:16:51;;;;;;;68.03;30.23;;;4.70;99.90;;;;;;5059746;28;20367;-60
2022/01/27 10:19:18;;;;;;;60.53;23.92;;;4.80;99.90;;;;;;5056754;28;20336;-60
2022/01/27 10:21:44;;;;;;;70.68;25.83;;;4.80;99.90;;;;;;5056677;28;20474;-60
2022/01/27 10:24:18;;;;;;;55.78;23.20;;;4.80;99.90;;;;;;5054724;28;20112;-60
2022/01/27 10:26:52;;;;;;;54.95;23.08;;;4.80;99.90;;;;;;5060430;28;20103;-60
2022/01/27 10:29:30;;;;;;;41.70;17.20;;;4.80;99.90;;;;;;5054981;28;20048;-59
2022/01/27 10:32:08;;;;;;;47.90;20.98;;;4.90;99.90;;;;;;5057963;28;20035;-61
2022/01/27 10:34:53;;;;;;;55.40;22.70;;;4.90;99.90;;;;;;5051702;28;20035;-58
2022/01/27 10:37:19;;;;;;;51.17;21.75;;;4.90;99.90;;;;;;5055955;28;20491;-58
2022/01/27 10:39:46;;;;;;;72.40;28.13;;;4.90;99.90;;;;;;5030208;28;20060;-60
2022/01/27 10:42:13;;;;;;;48.35;21.50;;;4.90;99.90;;;;;;5032449;28;20049;-59
2022/01/27 10:44:46;;;;;;;46.97;20.20;;;4.90;99.90;;;;;;5040105;28;20021;-60
2022/01/27 10:47:18;;;;;;;42.05;19.20;;;5.00;99.90;;;;;;5036941;28;20032;-60
2022/01/27 10:49:49;;;;;;;45.20;17.48;;;5.00;99.90;;;;;;5034830;28;20032;-59
2022/01/27 10:52:32;;;;;;;46.22;20.42;;;5.00;99.90;;;;;;5043201;28;20407;-59
2022/01/27 10:55:00;;;;;;;41.85;18.80;;;5.00;99.90;;;;;;5037623;28;20040;-60
2022/01/27 10:57:27;;;;;;;35.05;16.15;;;5.00;99.90;;;;;;5044173;28;20033;-61
2022/01/27 11:00:15;;;;;;;40.60;16.52;;;5.00;99.90;;;;;;5037187;28;20498;-59
2022/01/27 11:02:58;;;;;;;36.70;16.42;;;5.00;99.90;;;;;;5035088;28;20458;-57
2022/01/27 11:05:41;;;;;;;36.03;15.77;;;5.10;99.90;;;;;;5037921;28;20028;-58
2022/01/27 11:08:07;;;;;;;31.70;14.88;;;5.10;99.90;;;;;;5043914;28;20036;-61
2022/01/27 11:10:33;;;;;;;35.90;15.23;;;5.10;99.90;;;;;;5039539;28;20025;-60
2022/01/27 11:12:59;;;;;;;39.67;16.95;;;5.10;99.90;;;;;;5035055;28;20098;-59
2022/01/27 11:15:25;;;;;;;39.83;14.70;;;5.10;99.90;;;;;;5043329;28;20029;-60
2022/01/27 11:17:52;;;;;;;32.80;15.48;;;5.10;99.90;;;;;;5039790;28;20044;-61
2022/01/27 11:23:24;;;;;;;32.20;14.88;;;5.10;99.90;;;;;;5041096;28;20642;-61
2022/01/27 11:25:54;;;;;;;30.25;14.52;;;5.10;99.90;;;;;;5032835;28;20499;-60
2022/01/27 11:28:23;;;;;;;31.60;14.30;;;5.10;99.90;;;;;;5039432;28;20021;-60
2022/01/27 11:30:59;;;;;;;28.65;14.65;;;5.20;99.90;;;;;;5033464;28;20151;-61
2022/01/27 11:33:33;;;;;;;27.38;12.30;;;5.20;99.90;;;;;;5033914;28;20094;-60
2022/01/27 11:36:08;;;;;;;;;;;5.20;99.90;;;;;;5035174;28;20034;-62
2022/01/27 11:38:33;;;;;;;23.15;12.80;;;5.20;99.90;;;;;;5038599;28;20091;-61
2022/01/27 11:40:59;;;;;;;21.52;11.50;;;5.30;99.90;;;;;;5020984;28;20558;-60
2022/01/27 11:43:34;;;;;;;26.23;12.18;;;5.30;99.90;;;;;;5035998;28;20382;-59
2022/01/27 11:46:17;;;;;;;19.20;10.15;;;5.40;99.90;;;;;;5036025;28;20025;-61
2022/01/27 11:48:43;;;;;;;18.88;8.10;;;5.50;99.90;;;;;;5036879;28;21039;-58
2022/01/27 11:51:12;;;;;;;20.45;9.98;;;5.50;99.90;;;;;;5040435;28;20030;-52
2022/01/27 11:53:43;;;;;;;21.83;11.02;;;5.50;99.90;;;;;;5035594;28;20119;-58
2022/01/27 11:56:27;;;;;;;23.42;10.75;;;5.50;99.90;;;;;;5036942;28;20025;-59
2022/01/27 11:58:58;;;;;;;22.33;11.00;;;5.50;99.90;;;;;;5039204;28;20067;-57
2022/01/27 12:01:29;;;;;;;26.65;11.82;;;5.60;99.90;;;;;;5043829;28;20083;-60
2022/01/27 12:04:07;;;;;;;26.60;10.95;;;5.50;99.90;;;;;;5033892;28;20021;-60
2022/01/27 12:06:47;;;;;;;24.13;10.35;;;5.50;99.90;;;;;;5038318;28;20021;-60
2022/01/27 12:09:22;;;;;;;26.77;13.57;;;5.50;99.90;;;;;;5038545;28;20382;-60
2022/01/27 12:12:01;;;;;;;31.17;13.60;;;5.50;99.90;;;;;;5033693;28;20080;-60
2022/01/27 12:14:50;;;;;;;26.52;12.52;;;5.50;99.90;;;;;;5041049;28;20018;-61
2022/01/27 12:17:19;;;;;;;25.48;12.27;;;5.50;99.90;;;;;;5033812;28;20104;-60
2022/01/27 12:19:59;;;;;;;26.27;12.57;;;5.50;99.90;;;;;;5037047;28;20048;-60
2022/01/27 12:22:51;;;;;;;24.40;11.43;;;5.50;99.90;;;;;;5046363;28;20031;-58
2022/01/27 12:25:18;;;;;;;32.65;15.23;;;5.50;99.90;;;;;;5041882;28;20048;-60
2022/01/27 12:27:52;;;;;;;31.90;14.18;;;5.50;99.90;;;;;;5036358;28;20029;-60
2022/01/27 12:30:18;;;;;;;38.80;15.73;;;5.50;99.90;;;;;;5048314;28;20032;-60
2022/01/27 12:32:45;;;;;;;25.73;13.27;;;5.50;99.90;;;;;;5034780;28;20037;-59
2022/01/27 12:35:14;;;;;;;27.48;12.98;;;5.50;99.90;;;;;;5037465;28;20111;-61
2022/01/27 12:37:42;;;;;;;26.13;12.50;;;5.60;99.90;;;;;;5033844;28;20024;-60
2022/01/27 12:40:29;;;;;;;26.10;11.95;;;5.60;99.90;;;;;;5017549;28;20677;-61
2022/01/27 12:43:11;;;;;;;23.88;11.68;;;5.60;99.90;;;;;;5037804;28;20060;-59
2022/01/27 12:45:38;;;;;;;25.13;12.32;;;5.60;99.90;;;;;;5048857;28;20032;-59
2022/01/27 12:48:10;;;;;;;27.63;13.48;;;5.60;99.90;;;;;;5052597;28;20029;-59
2022/01/27 12:50:37;;;;;;;21.27;10.88;;;5.60;99.90;;;;;;5049613;28;20535;-58
2022/01/27 12:53:09;;;;;;;31.08;14.63;;;5.60;99.90;;;;;;5049558;28;20088;-61
2022/01/27 12:55:37;;;;;;;22.52;11.20;;;5.60;99.90;;;;;;5039639;28;20033;-58
2022/01/27 12:58:04;;;;;;;29.70;14.40;;;5.60;99.90;;;;;;5041420;28;20029;-60
2022/01/27 13:00:38;;;;;;;31.50;13.63;;;5.60;99.90;;;;;;5046199;28;20021;-60
2022/01/27 13:03:05;;;;;;;48.08;21.25;;;5.60;99.90;;;;;;5040618;28;20061;-59
2022/01/27 13:05:36;;;;;;;35.53;13.27;;;5.60;99.90;;;;;;5038908;28;20391;-61
2022/01/27 13:08:12;;;;;;;32.25;15.32;;;5.60;99.90;;;;;;5041565;28;20104;-58
2022/01/27 13:10:47;;;;;;;32.13;14.15;;;5.60;99.90;;;;;;5046828;28;20044;-60
2022/01/27 13:13:19;;;;;;;29.85;12.10;;;5.60;99.90;;;;;;5043753;28;20032;-60
2022/01/27 13:15:45;;;;;;;31.33;12.35;;;5.60;99.90;;;;;;5040408;28;20028;-59
2022/01/27 13:18:22;;;;;;;30.67;14.13;;;5.60;99.90;;;;;;5040586;28;20032;-60
2022/01/27 13:20:53;;;;;;;24.95;11.77;;;5.60;99.90;;;;;;5042224;28;20021;-60
2022/01/27 13:23:30;;;;;;;26.42;12.27;;;5.60;99.90;;;;;;5049655;28;20025;-59
2022/01/27 13:26:03;;;;;;;27.48;11.63;;;5.60;99.90;;;;;;5051421;28;20025;-59